sensor_id;sensor_type;location;lat;lon;timestamp;pressure;altitude;pressure_sealevel;temperature;humidity
29733;BME280;16643;43.158;25.302;2023-06-19T00:01:48;97940.09;;;19.76;100.00
29733;BME280;16643;43.158;25.302;2023-06-19T00:04:14;97918.19;;;19.63;100.00
29733;BME280;16643;43.158;25.302;2023-06-19T00:06:39;97880.91;;;19.42;100.00
29733;BME280;16643;43.158;25.302;2023-06-19T00:09:07;97903.78;;;19.41;100.00
29733;BME280;16643;43.158;25.302;2023-06-19T00:11:32;97908.47;;;19.63;100.00
29733;BME280;16643;43.158;25.302;2023-06-19T00:13:58;97855.00;;;19.23;100.00
29733;BME280;16643;43.158;25.302;2023-06-19T00:16:24;97917.09;;;19.65;100.00
29733;BME280;16643;43.158;25.302;2023-06-19T00:18:51;97903.06;;;19.65;100.00
29733;BME280;16643;43.158;25.302;2023-06-19T00:21:24;97902.56;;;19.60;100.00
29733;BME280;16643;43.158;25.302;2023-06-19T00:23:51;97891.59;;;19.53;100.00
29733;BME280;16643;43.158;25.302;2023-06-19T00:26:18;97921.53;;;19.77;100.00
29733;BME280;16643;43.158;25.302;2023-06-19T00:28:47;97863.19;;;19.44;100.00
29733;BME280;16643;43.158;25.302;2023-06-19T00:31:15;97890.44;;;19.57;100.00
29733;BME280;16643;43.158;25.302;2023-06-19T00:33:42;97869.22;;;19.46;100.00
29733;BME280;16643;43.158;25.302;2023-06-19T00:36:12;97882.72;;;19.54;100.00
29733;BME280;16643;43.158;25.302;2023-06-19T00:38:38;97865.63;;;19.47;100.00
29733;BME280;16643;43.158;25.302;2023-06-19T00:41:05;97920.88;;;19.86;100.00
29733;BME280;16643;43.158;25.302;2023-06-19T00:43:31;97919.53;;;19.81;100.00
29733;BME280;16643;43.158;25.302;2023-06-19T00:45:58;97861.75;;;19.40;100.00
29733;BME280;16643;43.158;25.302;2023-06-19T00:48:26;97889.28;;;19.61;100.00
29733;BME280;16643;43.158;25.302;2023-06-19T00:50:52;97925.34;;;19.73;100.00
29733;BME280;16643;43.158;25.302;2023-06-19T00:53:19;97925.94;;;19.89;100.00
29733;BME280;16643;43.158;25.302;2023-06-19T00:55:45;97925.09;;;19.76;100.00
29733;BME280;16643;43.158;25.302;2023-06-19T00:58:11;97916.97;;;19.79;100.00
29733;BME280;16643;43.158;25.302;2023-06-19T01:00:37;97916.88;;;19.81;100.00
29733;BME280;16643;43.158;25.302;2023-06-19T01:03:03;97850.75;;;19.46;100.00
29733;BME280;16643;43.158;25.302;2023-06-19T01:05:29;97922.06;;;19.82;100.00
29733;BME280;16643;43.158;25.302;2023-06-19T01:08:19;97900.13;;;19.69;100.00
29733;BME280;16643;43.158;25.302;2023-06-19T01:10:51;97864.16;;;19.55;100.00
29733;BME280;16643;43.158;25.302;2023-06-19T01:15:50;97906.97;;;19.72;100.00
29733;BME280;16643;43.158;25.302;2023-06-19T01:18:17;97898.88;;;19.62;100.00
29733;BME280;16643;43.158;25.302;2023-06-19T01:20:43;97930.38;;;19.89;100.00
29733;BME280;16643;43.158;25.302;2023-06-19T01:23:10;97939.66;;;19.94;100.00
29733;BME280;16643;43.158;25.302;2023-06-19T01:25:37;97946.94;;;19.91;100.00
29733;BME280;16643;43.158;25.302;2023-06-19T01:28:07;97926.69;;;19.66;100.00
29733;BME280;16643;43.158;25.302;2023-06-19T01:30:37;97947.78;;;19.79;100.00
29733;BME280;16643;43.158;25.302;2023-06-19T01:33:08;97945.38;;;19.76;100.00
29733;BME280;16643;43.158;25.302;2023-06-19T01:35:38;97927.25;;;19.58;100.00
29733;BME280;16643;43.158;25.302;2023-06-19T01:38:05;97942.97;;;19.73;100.00
29733;BME280;16643;43.158;25.302;2023-06-19T01:40:33;97938.09;;;19.67;100.00
29733;BME280;16643;43.158;25.302;2023-06-19T01:42:59;97925.25;;;19.62;100.00
29733;BME280;16643;43.158;25.302;2023-06-19T01:45:30;97868.06;;;19.25;100.00
29733;BME280;16643;43.158;25.302;2023-06-19T01:47:56;97902.63;;;19.45;100.00
29733;BME280;16643;43.158;25.302;2023-06-19T01:50:23;97848.66;;;19.13;100.00
29733;BME280;16643;43.158;25.302;2023-06-19T01:52:49;97939.44;;;19.47;100.00
29733;BME280;16643;43.158;25.302;2023-06-19T01:55:15;97901.41;;;19.38;100.00
29733;BME280;16643;43.158;25.302;2023-06-19T01:57:41;97882.50;;;19.32;100.00
29733;BME280;16643;43.158;25.302;2023-06-19T02:00:07;97867.22;;;19.24;100.00
29733;BME280;16643;43.158;25.302;2023-06-19T02:02:33;97932.53;;;19.58;100.00
29733;BME280;16643;43.158;25.302;2023-06-19T02:04:59;97888.94;;;19.28;100.00
29733;BME280;16643;43.158;25.302;2023-06-19T02:07:25;97942.31;;;19.56;100.00
29733;BME280;16643;43.158;25.302;2023-06-19T02:09:50;97870.50;;;19.15;100.00
29733;BME280;16643;43.158;25.302;2023-06-19T02:12:16;56942.16;;;19.15;100.00
29733;BME280;16643;43.158;25.302;2023-06-19T02:14:42;97910.34;;;19.23;100.00
29733;BME280;16643;43.158;25.302;2023-06-19T02:17:07;97921.53;;;19.39;100.00
29733;BME280;16643;43.158;25.302;2023-06-19T02:19:33;97952.47;;;19.50;100.00
29733;BME280;16643;43.158;25.302;2023-06-19T02:21:59;97871.53;;;19.00;100.00
29733;BME280;16643;43.158;25.302;2023-06-19T02:24:24;97873.78;;;19.06;100.00
29733;BME280;16643;43.158;25.302;2023-06-19T02:26:50;97896.66;;;19.18;100.00
29733;BME280;16643;43.158;25.302;2023-06-19T02:29:16;97957.50;;;19.40;100.00
29733;BME280;16643;43.158;25.302;2023-06-19T02:31:42;97858.06;;;18.92;100.00
29733;BME280;16643;43.158;25.302;2023-06-19T02:34:08;97945.34;;;19.25;100.00
29733;BME280;16643;43.158;25.302;2023-06-19T02:36:37;97908.13;;;19.04;100.00
29733;BME280;16643;43.158;25.302;2023-06-19T02:39:05;97925.75;;;19.16;100.00
29733;BME280;16643;43.158;25.302;2023-06-19T02:41:33;97968.75;;;19.42;100.00
29733;BME280;16643;43.158;25.302;2023-06-19T02:43:59;97913.56;;;18.89;100.00
29733;BME280;16643;43.158;25.302;2023-06-19T02:46:25;97891.78;;;18.99;100.00
29733;BME280;16643;43.158;25.302;2023-06-19T02:48:50;97919.59;;;19.03;100.00
29733;BME280;16643;43.158;25.302;2023-06-19T02:51:16;97915.94;;;19.06;100.00
29733;BME280;16643;43.158;25.302;2023-06-19T02:53:42;97907.06;;;18.94;100.00
29733;BME280;16643;43.158;25.302;2023-06-19T02:56:10;97910.13;;;19.01;100.00
29733;BME280;16643;43.158;25.302;2023-06-19T02:58:36;97933.13;;;19.24;100.00
29733;BME280;16643;43.158;25.302;2023-06-19T03:01:03;97976.34;;;19.34;100.00
29733;BME280;16643;43.158;25.302;2023-06-19T03:03:29;97941.34;;;19.07;100.00
29733;BME280;16643;43.158;25.302;2023-06-19T03:05:56;97918.25;;;19.10;100.00
29733;BME280;16643;43.158;25.302;2023-06-19T03:08:21;97871.00;;;18.82;100.00
29733;BME280;16643;43.158;25.302;2023-06-19T03:10:47;97920.56;;;19.15;100.00
29733;BME280;16643;43.158;25.302;2023-06-19T03:13:13;97897.25;;;19.09;100.00
29733;BME280;16643;43.158;25.302;2023-06-19T03:15:39;97898.94;;;19.10;100.00
29733;BME280;16643;43.158;25.302;2023-06-19T03:18:05;97960.75;;;19.44;100.00
29733;BME280;16643;43.158;25.302;2023-06-19T03:20:32;97894.00;;;19.05;100.00
29733;BME280;16643;43.158;25.302;2023-06-19T03:22:58;97925.84;;;19.15;100.00
29733;BME280;16643;43.158;25.302;2023-06-19T03:25:24;97911.59;;;19.05;100.00
29733;BME280;16643;43.158;25.302;2023-06-19T03:27:50;97896.75;;;19.04;100.00
29733;BME280;16643;43.158;25.302;2023-06-19T03:30:15;97888.38;;;18.97;100.00
29733;BME280;16643;43.158;25.302;2023-06-19T03:32:43;97951.97;;;19.31;100.00
29733;BME280;16643;43.158;25.302;2023-06-19T03:35:09;97966.66;;;19.35;100.00
29733;BME280;16643;43.158;25.302;2023-06-19T03:37:35;97935.66;;;19.26;100.00
29733;BME280;16643;43.158;25.302;2023-06-19T03:40:01;73603.19;;;-142.82;100.00
29733;BME280;16643;43.158;25.302;2023-06-19T03:42:28;97973.09;;;19.43;100.00
29733;BME280;16643;43.158;25.302;2023-06-19T03:44:54;97952.94;;;19.42;100.00
29733;BME280;16643;43.158;25.302;2023-06-19T03:47:21;97920.38;;;19.18;100.00
29733;BME280;16643;43.158;25.302;2023-06-19T03:49:46;97949.72;;;19.51;100.00
29733;BME280;16643;43.158;25.302;2023-06-19T03:52:14;97910.44;;;19.21;100.00
29733;BME280;16643;43.158;25.302;2023-06-19T03:54:39;97885.66;;;19.11;100.00
29733;BME280;16643;43.158;25.302;2023-06-19T03:57:05;97907.72;;;19.23;100.00
29733;BME280;16643;43.158;25.302;2023-06-19T03:59:31;97894.97;;;19.17;100.00
29733;BME280;16643;43.158;25.302;2023-06-19T04:01:57;97891.88;;;19.23;100.00
29733;BME280;16643;43.158;25.302;2023-06-19T04:04:24;97865.75;;;19.20;100.00
29733;BME280;16643;43.158;25.302;2023-06-19T04:06:50;97927.56;;;19.67;99.41
29733;BME280;16643;43.158;25.302;2023-06-19T04:09:15;97956.00;;;19.87;98.37
29733;BME280;16643;43.158;25.302;2023-06-19T04:11:41;97861.53;;;19.55;96.87
29733;BME280;16643;43.158;25.302;2023-06-19T04:14:07;97897.00;;;19.88;97.33
29733;BME280;16643;43.158;25.302;2023-06-19T04:16:32;97855.91;;;19.73;96.42
29733;BME280;16643;43.158;25.302;2023-06-19T04:18:58;97883.50;;;19.92;95.64
29733;BME280;16643;43.158;25.302;2023-06-19T04:21:25;97959.81;;;20.45;95.02
29733;BME280;16643;43.158;25.302;2023-06-19T04:23:51;97871.13;;;20.06;94.20
29733;BME280;16643;43.158;25.302;2023-06-19T04:26:17;97935.72;;;20.49;93.44
29733;BME280;16643;43.158;25.302;2023-06-19T04:28:43;97905.34;;;20.31;92.97
29733;BME280;16643;43.158;25.302;2023-06-19T04:31:09;97880.81;;;20.05;92.58
29733;BME280;16643;43.158;25.302;2023-06-19T04:33:35;97927.63;;;20.40;92.66
29733;BME280;16643;43.158;25.302;2023-06-19T04:36:00;97901.94;;;20.05;92.89
29733;BME280;16643;43.158;25.302;2023-06-19T04:38:26;97902.34;;;20.12;94.25
29733;BME280;16643;43.158;25.302;2023-06-19T04:40:52;97903.25;;;19.87;93.62
29733;BME280;16643;43.158;25.302;2023-06-19T04:43:18;97877.84;;;19.86;93.34
29733;BME280;16643;43.158;25.302;2023-06-19T04:45:44;97904.69;;;20.04;93.21
29733;BME280;16643;43.158;25.302;2023-06-19T04:48:11;97905.75;;;20.01;93.57
29733;BME280;16643;43.158;25.302;2023-06-19T04:50:37;97907.56;;;19.88;92.89
29733;BME280;16643;43.158;25.302;2023-06-19T04:53:06;97939.47;;;20.21;93.85
29733;BME280;16643;43.158;25.302;2023-06-19T04:55:31;97898.34;;;20.06;94.26
29733;BME280;16643;43.158;25.302;2023-06-19T04:57:59;97918.72;;;20.04;93.46
29733;BME280;16643;43.158;25.302;2023-06-19T05:00:24;97940.28;;;20.35;93.70
29733;BME280;16643;43.158;25.302;2023-06-19T05:02:53;97933.41;;;20.32;93.26
29733;BME280;16643;43.158;25.302;2023-06-19T05:05:23;73468.47;;;-142.82;93.26
29733;BME280;16643;43.158;25.302;2023-06-19T05:07:49;73220.91;;;-142.82;93.06
29733;BME280;16643;43.158;25.302;2023-06-19T05:10:17;97893.50;;;20.37;90.86
29733;BME280;16643;43.158;25.302;2023-06-19T05:12:44;97893.72;;;20.57;90.18
29733;BME280;16643;43.158;25.302;2023-06-19T05:15:28;97980.47;;;21.22;89.72
29733;BME280;16643;43.158;25.302;2023-06-19T05:17:54;97919.31;;;20.92;90.47
29733;BME280;16643;43.158;25.302;2023-06-19T05:20:29;88249.84;;;-142.82;90.47
29733;BME280;16643;43.158;25.302;2023-06-19T05:23:00;97931.13;;;20.99;88.83
29733;BME280;16643;43.158;25.302;2023-06-19T05:25:27;97928.94;;;20.93;90.30
29733;BME280;16643;43.158;25.302;2023-06-19T05:28:07;97946.47;;;20.94;89.43
29733;BME280;16643;43.158;25.302;2023-06-19T05:30:48;97935.13;;;20.81;91.11
29733;BME280;16643;43.158;25.302;2023-06-19T05:33:20;97921.50;;;20.63;90.01
29733;BME280;16643;43.158;25.302;2023-06-19T05:35:51;97983.47;;;21.18;90.20
29733;BME280;16643;43.158;25.302;2023-06-19T05:38:19;97950.59;;;20.98;90.81
29733;BME280;16643;43.158;25.302;2023-06-19T05:40:56;97993.09;;;21.19;89.85
29733;BME280;16643;43.158;25.302;2023-06-19T05:43:32;97882.56;;;20.54;89.86
29733;BME280;16643;43.158;25.302;2023-06-19T05:46:21;97878.88;;;20.67;89.70
29733;BME280;16643;43.158;25.302;2023-06-19T05:48:54;97923.91;;;21.01;90.06
29733;BME280;16643;43.158;25.302;2023-06-19T05:54:55;97923.66;;;21.39;87.07
29733;BME280;16643;43.158;25.302;2023-06-19T05:57:30;73220.91;;;-142.82;88.29
29733;BME280;16643;43.158;25.302;2023-06-19T06:00:12;97988.56;;;22.34;86.35
29733;BME280;16643;43.158;25.302;2023-06-19T06:03:07;97897.72;;;22.00;86.83
29733;BME280;16643;43.158;25.302;2023-06-19T06:05:33;97994.00;;;22.87;82.63
29733;BME280;16643;43.158;25.302;2023-06-19T06:08:12;97866.34;;;22.27;81.71
29733;BME280;16643;43.158;25.302;2023-06-19T06:10:47;97890.88;;;22.40;81.00
29733;BME280;16643;43.158;25.302;2023-06-19T06:13:41;97995.16;;;23.26;79.98
29733;BME280;16643;43.158;25.302;2023-06-19T06:16:10;97923.50;;;22.84;77.77
29733;BME280;16643;43.158;25.302;2023-06-19T06:18:40;98014.69;;;23.36;79.20
29733;BME280;16643;43.158;25.302;2023-06-19T06:21:11;97888.72;;;22.77;78.13
29733;BME280;16643;43.158;25.302;2023-06-19T06:23:44;97942.28;;;22.92;79.26
29733;BME280;16643;43.158;25.302;2023-06-19T06:29:19;97888.72;;;23.19;76.43
29733;BME280;16643;43.158;25.302;2023-06-19T06:32:17;97952.66;;;23.78;78.60
29733;BME280;16643;43.158;25.302;2023-06-19T06:34:55;97949.31;;;23.86;77.30
29733;BME280;16643;43.158;25.302;2023-06-19T06:37:25;97964.59;;;23.94;76.34
29733;BME280;16643;43.158;25.302;2023-06-19T06:40:50;97895.09;;;23.88;77.35
29733;BME280;16643;43.158;25.302;2023-06-19T06:43:40;97980.53;;;24.83;75.92
29733;BME280;16643;43.158;25.302;2023-06-19T06:50:27;97926.34;;;24.84;76.18
29733;BME280;16643;43.158;25.302;2023-06-19T07:03:02;97913.63;;;24.78;72.18
29733;BME280;16643;43.158;25.302;2023-06-19T07:05:28;97985.78;;;25.14;71.91
29733;BME280;16643;43.158;25.302;2023-06-19T07:08:10;98021.75;;;25.47;73.28
29733;BME280;16643;43.158;25.302;2023-06-19T07:10:48;97908.28;;;24.88;72.30
29733;BME280;16643;43.158;25.302;2023-06-19T07:13:17;97935.34;;;25.03;73.82
29733;BME280;16643;43.158;25.302;2023-06-19T07:16:30;98018.19;;;25.85;73.58
29733;BME280;16643;43.158;25.302;2023-06-19T07:19:22;97999.28;;;25.78;71.62
29733;BME280;16643;43.158;25.302;2023-06-19T07:25:26;97928.25;;;25.59;70.16
29733;BME280;16643;43.158;25.302;2023-06-19T07:27:58;97975.28;;;25.88;70.76
29733;BME280;16643;43.158;25.302;2023-06-19T07:30:26;98042.66;;;26.08;70.21
29733;BME280;16643;43.158;25.302;2023-06-19T07:32:54;97986.09;;;25.86;68.96
29733;BME280;16643;43.158;25.302;2023-06-19T07:35:21;97933.06;;;25.37;70.98
29733;BME280;16643;43.158;25.302;2023-06-19T07:40:45;97946.50;;;25.45;69.73
29733;BME280;16643;43.158;25.302;2023-06-19T07:43:11;98027.94;;;26.13;70.36
29733;BME280;16643;43.158;25.302;2023-06-19T07:45:41;97999.78;;;26.01;73.55
29733;BME280;16643;43.158;25.302;2023-06-19T07:48:07;98000.25;;;26.24;72.28
29733;BME280;16643;43.158;25.302;2023-06-19T07:50:33;97982.53;;;26.05;69.76
29733;BME280;16643;43.158;25.302;2023-06-19T07:52:58;97943.78;;;25.83;70.97
29733;BME280;16643;43.158;25.302;2023-06-19T07:55:25;97981.81;;;26.03;70.58
29733;BME280;16643;43.158;25.302;2023-06-19T07:57:52;98026.78;;;26.25;69.41
29733;BME280;16643;43.158;25.302;2023-06-19T08:00:24;98008.69;;;26.19;73.25
29733;BME280;16643;43.158;25.302;2023-06-19T08:02:50;98006.13;;;26.37;70.06
29733;BME280;16643;43.158;25.302;2023-06-19T08:05:18;98020.00;;;26.41;70.60
29733;BME280;16643;43.158;25.302;2023-06-19T08:07:44;97947.19;;;26.40;72.43
29733;BME280;16643;43.158;25.302;2023-06-19T08:10:10;98029.25;;;26.91;65.57
29733;BME280;16643;43.158;25.302;2023-06-19T08:12:36;98037.00;;;26.94;68.83
29733;BME280;16643;43.158;25.302;2023-06-19T08:15:03;97961.56;;;26.47;68.02
29733;BME280;16643;43.158;25.302;2023-06-19T08:17:29;97928.72;;;26.47;67.59
29733;BME280;16643;43.158;25.302;2023-06-19T08:19:55;97995.84;;;26.97;68.34
29733;BME280;16643;43.158;25.302;2023-06-19T08:22:23;97980.72;;;27.05;66.67
29733;BME280;16643;43.158;25.302;2023-06-19T08:24:50;97985.38;;;27.03;67.62
29733;BME280;16643;43.158;25.302;2023-06-19T08:27:16;98038.75;;;27.21;69.46
29733;BME280;16643;43.158;25.302;2023-06-19T08:29:42;97998.50;;;27.15;68.36
29733;BME280;16643;43.158;25.302;2023-06-19T08:32:08;98022.13;;;27.09;67.36
29733;BME280;16643;43.158;25.302;2023-06-19T08:34:35;98002.16;;;26.96;66.14
29733;BME280;16643;43.158;25.302;2023-06-19T08:37:00;98037.88;;;27.30;66.60
29733;BME280;16643;43.158;25.302;2023-06-19T08:39:26;98030.44;;;27.24;64.11
29733;BME280;16643;43.158;25.302;2023-06-19T08:41:52;98023.94;;;27.44;66.53
29733;BME280;16643;43.158;25.302;2023-06-19T08:44:20;98054.94;;;27.55;63.77
29733;BME280;16643;43.158;25.302;2023-06-19T08:46:46;98042.94;;;27.77;64.19
29733;BME280;16643;43.158;25.302;2023-06-19T08:49:12;98044.84;;;27.85;63.39
29733;BME280;16643;43.158;25.302;2023-06-19T08:51:38;98059.00;;;27.59;60.26
29733;BME280;16643;43.158;25.302;2023-06-19T08:54:06;98053.56;;;27.33;62.73
29733;BME280;16643;43.158;25.302;2023-06-19T08:56:32;97980.53;;;26.71;65.24
29733;BME280;16643;43.158;25.302;2023-06-19T08:59:14;97956.44;;;26.63;68.84
29733;BME280;16643;43.158;25.302;2023-06-19T09:01:50;98027.78;;;27.24;63.91
29733;BME280;16643;43.158;25.302;2023-06-19T09:04:22;98025.41;;;27.39;63.34
29733;BME280;16643;43.158;25.302;2023-06-19T09:06:56;98049.81;;;27.79;61.58
29733;BME280;16643;43.158;25.302;2023-06-19T09:09:25;98043.06;;;27.93;60.30
29733;BME280;16643;43.158;25.302;2023-06-19T09:11:57;98047.44;;;28.20;65.45
29733;BME280;16643;43.158;25.302;2023-06-19T09:14:43;98016.38;;;28.01;64.60
29733;BME280;16643;43.158;25.302;2023-06-19T09:17:16;98015.34;;;27.94;63.24
29733;BME280;16643;43.158;25.302;2023-06-19T09:19:52;98030.22;;;27.97;62.62
29733;BME280;16643;43.158;25.302;2023-06-19T09:22:22;98023.56;;;27.75;62.00
29733;BME280;16643;43.158;25.302;2023-06-19T09:24:48;98033.72;;;27.71;63.66
29733;BME280;16643;43.158;25.302;2023-06-19T09:27:16;98046.13;;;27.80;62.41
29733;BME280;16643;43.158;25.302;2023-06-19T09:29:48;98052.59;;;27.96;62.79
29733;BME280;16643;43.158;25.302;2023-06-19T09:34:43;98060.31;;;28.25;60.64
29733;BME280;16643;43.158;25.302;2023-06-19T09:37:09;98068.19;;;28.26;61.86
29733;BME280;16643;43.158;25.302;2023-06-19T09:39:39;98061.56;;;28.12;62.56
29733;BME280;16643;43.158;25.302;2023-06-19T09:42:08;98011.09;;;28.09;62.43
29733;BME280;16643;43.158;25.302;2023-06-19T09:44:42;97997.69;;;28.35;61.08
29733;BME280;16643;43.158;25.302;2023-06-19T09:47:17;98014.53;;;28.28;62.22
29733;BME280;16643;43.158;25.302;2023-06-19T09:49:53;98056.78;;;28.84;63.89
29733;BME280;16643;43.158;25.302;2023-06-19T09:52:20;98043.56;;;28.90;62.43
29733;BME280;16643;43.158;25.302;2023-06-19T09:54:49;98053.06;;;28.77;61.47
29733;BME280;16643;43.158;25.302;2023-06-19T09:57:16;98003.38;;;28.32;60.09
29733;BME280;16643;43.158;25.302;2023-06-19T09:59:43;98028.63;;;28.12;62.46
29733;BME280;16643;43.158;25.302;2023-06-19T10:02:09;97979.22;;;27.64;64.37
29733;BME280;16643;43.158;25.302;2023-06-19T10:04:43;98008.81;;;27.71;61.57
29733;BME280;16643;43.158;25.302;2023-06-19T10:07:21;98049.13;;;28.03;62.15
29733;BME280;16643;43.158;25.302;2023-06-19T10:09:56;97993.63;;;27.71;64.19
29733;BME280;16643;43.158;25.302;2023-06-19T10:12:22;98034.94;;;28.03;64.45
29733;BME280;16643;43.158;25.302;2023-06-19T10:14:48;98009.97;;;27.68;65.34
29733;BME280;16643;43.158;25.302;2023-06-19T10:17:17;98004.59;;;27.25;63.88
29733;BME280;16643;43.158;25.302;2023-06-19T10:19:50;97971.50;;;27.18;65.60
29733;BME280;16643;43.158;25.302;2023-06-19T10:22:20;97994.19;;;27.57;63.63
29733;BME280;16643;43.158;25.302;2023-06-19T10:24:50;98020.59;;;28.12;62.35
29733;BME280;16643;43.158;25.302;2023-06-19T10:27:21;98045.66;;;28.29;64.36
29733;BME280;16643;43.158;25.302;2023-06-19T10:29:54;98006.78;;;28.16;64.17
29733;BME280;16643;43.158;25.302;2023-06-19T10:32:23;98009.38;;;28.34;61.76
29733;BME280;16643;43.158;25.302;2023-06-19T10:34:48;98007.09;;;28.47;61.17
29733;BME280;16643;43.158;25.302;2023-06-19T10:37:17;98027.09;;;28.69;59.03
29733;BME280;16643;43.158;25.302;2023-06-19T10:39:43;97999.16;;;28.64;58.67
29733;BME280;16643;43.158;25.302;2023-06-19T10:42:09;98025.34;;;28.94;58.97
29733;BME280;16643;43.158;25.302;2023-06-19T10:44:36;98019.50;;;28.99;55.22
29733;BME280;16643;43.158;25.302;2023-06-19T10:47:04;98012.44;;;28.89;58.97
29733;BME280;16643;43.158;25.302;2023-06-19T10:49:30;97962.47;;;28.56;59.27
29733;BME280;16643;43.158;25.302;2023-06-19T10:51:59;98021.69;;;29.03;61.26
29733;BME280;16643;43.158;25.302;2023-06-19T10:54:26;98020.72;;;29.20;59.32
29733;BME280;16643;43.158;25.302;2023-06-19T10:56:53;97991.06;;;29.06;58.86
29733;BME280;16643;43.158;25.302;2023-06-19T10:59:19;98020.25;;;29.41;57.48
29733;BME280;16643;43.158;25.302;2023-06-19T11:01:46;98005.50;;;29.37;56.31
29733;BME280;16643;43.158;25.302;2023-06-19T11:04:14;97969.81;;;29.04;59.40
29733;BME280;16643;43.158;25.302;2023-06-19T11:06:42;97943.03;;;28.88;56.30
29733;BME280;16643;43.158;25.302;2023-06-19T11:09:11;97990.09;;;29.23;58.55
29733;BME280;16643;43.158;25.302;2023-06-19T11:11:42;97960.75;;;29.13;57.40
29733;BME280;16643;43.158;25.302;2023-06-19T11:14:08;97965.78;;;29.24;57.37
29733;BME280;16643;43.158;25.302;2023-06-19T11:16:37;98004.34;;;29.48;56.65
29733;BME280;16643;43.158;25.302;2023-06-19T11:19:03;97979.22;;;29.49;55.65
29733;BME280;16643;43.158;25.302;2023-06-19T11:21:33;97998.66;;;29.51;57.17
29733;BME280;16643;43.158;25.302;2023-06-19T11:24:00;97967.31;;;29.11;56.09
29733;BME280;16643;43.158;25.302;2023-06-19T11:26:27;97961.44;;;29.07;55.71
29733;BME280;16643;43.158;25.302;2023-06-19T11:28:53;97969.44;;;28.83;57.94
29733;BME280;16643;43.158;25.302;2023-06-19T11:31:25;97965.03;;;28.66;59.48
29733;BME280;16643;43.158;25.302;2023-06-19T11:34:00;97973.22;;;28.72;57.70
29733;BME280;16643;43.158;25.302;2023-06-19T11:36:28;97979.50;;;28.89;57.96
29733;BME280;16643;43.158;25.302;2023-06-19T11:38:55;97997.78;;;29.10;58.49
29733;BME280;16643;43.158;25.302;2023-06-19T11:41:27;97973.63;;;28.94;57.36
29733;BME280;16643;43.158;25.302;2023-06-19T11:44:07;97984.19;;;28.95;58.09
29733;BME280;16643;43.158;25.302;2023-06-19T11:46:36;97950.81;;;28.73;57.95
29733;BME280;16643;43.158;25.302;2023-06-19T11:49:16;97991.75;;;29.08;58.09
29733;BME280;16643;43.158;25.302;2023-06-19T11:51:45;97992.94;;;29.21;57.95
29733;BME280;16643;43.158;25.302;2023-06-19T11:54:14;97962.75;;;28.95;56.07
29733;BME280;16643;43.158;25.302;2023-06-19T11:56:40;97985.03;;;29.04;56.80
29733;BME280;16643;43.158;25.302;2023-06-19T11:59:06;97979.03;;;29.10;57.63
29733;BME280;16643;43.158;25.302;2023-06-19T12:01:33;97969.28;;;28.93;57.70
29733;BME280;16643;43.158;25.302;2023-06-19T12:03:59;97954.72;;;28.95;58.29
29733;BME280;16643;43.158;25.302;2023-06-19T12:06:26;97958.94;;;29.22;58.89
29733;BME280;16643;43.158;25.302;2023-06-19T12:08:52;97907.56;;;29.10;57.48
29733;BME280;16643;43.158;25.302;2023-06-19T12:11:17;97889.28;;;29.14;55.74
29733;BME280;16643;43.158;25.302;2023-06-19T12:13:44;97921.94;;;29.34;56.54
29733;BME280;16643;43.158;25.302;2023-06-19T12:16:10;97908.03;;;29.46;57.51
29733;BME280;16643;43.158;25.302;2023-06-19T12:18:36;97918.53;;;29.72;58.89
29733;BME280;16643;43.158;25.302;2023-06-19T12:21:03;97900.66;;;29.56;58.52
29733;BME280;16643;43.158;25.302;2023-06-19T12:23:29;97925.09;;;29.61;57.12
29733;BME280;16643;43.158;25.302;2023-06-19T12:25:55;97915.22;;;29.54;55.24
29733;BME280;16643;43.158;25.302;2023-06-19T12:28:21;97924.44;;;29.51;56.00
29733;BME280;16643;43.158;25.302;2023-06-19T12:30:47;97920.44;;;29.07;55.97
29733;BME280;16643;43.158;25.302;2023-06-19T12:33:20;97908.22;;;28.96;56.89
29733;BME280;16643;43.158;25.302;2023-06-19T12:35:46;97933.13;;;29.13;56.45
29733;BME280;16643;43.158;25.302;2023-06-19T12:38:13;97944.53;;;29.31;55.39
29733;BME280;16643;43.158;25.302;2023-06-19T12:40:39;97920.25;;;29.33;56.79
29733;BME280;16643;43.158;25.302;2023-06-19T12:43:06;97951.41;;;29.17;55.51
29733;BME280;16643;43.158;25.302;2023-06-19T12:45:31;97926.09;;;28.79;57.48
29733;BME280;16643;43.158;25.302;2023-06-19T12:47:58;97914.81;;;28.60;57.91
29733;BME280;16643;43.158;25.302;2023-06-19T12:50:23;97932.41;;;28.62;60.44
29733;BME280;16643;43.158;25.302;2023-06-19T12:52:50;97928.63;;;28.31;59.51
29733;BME280;16643;43.158;25.302;2023-06-19T12:55:16;97903.06;;;28.02;60.58
29733;BME280;16643;43.158;25.302;2023-06-19T12:57:41;97919.44;;;27.99;60.05
29733;BME280;16643;43.158;25.302;2023-06-19T13:00:11;97927.44;;;27.99;60.15
29733;BME280;16643;43.158;25.302;2023-06-19T13:02:40;97916.38;;;27.34;64.94
29733;BME280;16643;43.158;25.302;2023-06-19T13:05:07;97947.22;;;27.29;68.96
29733;BME280;16643;43.158;25.302;2023-06-19T13:07:32;97946.66;;;26.54;74.78
29733;BME280;16643;43.158;25.302;2023-06-19T13:09:58;97934.97;;;26.37;77.26
29733;BME280;16643;43.158;25.302;2023-06-19T13:12:24;97929.00;;;25.89;80.04
29733;BME280;16643;43.158;25.302;2023-06-19T13:14:49;97915.63;;;25.98;81.39
29733;BME280;16643;43.158;25.302;2023-06-19T13:17:15;97927.28;;;25.97;79.83
29733;BME280;16643;43.158;25.302;2023-06-19T13:19:41;97912.72;;;25.92;81.59
29733;BME280;16643;43.158;25.302;2023-06-19T13:22:06;97926.25;;;26.08;79.19
29733;BME280;16643;43.158;25.302;2023-06-19T13:24:32;97941.59;;;26.24;78.70
29733;BME280;16643;43.158;25.302;2023-06-19T13:26:58;97926.31;;;26.26;78.37